createdAt,value
2023-02-08T00:00:24.223Z,79.41
2023-02-08T00:01:24.185Z,78.89
2023-02-08T00:02:24.278Z,79.83
2023-02-08T00:03:24.232Z,79.93
2023-02-08T00:04:24.183Z,80.04
2023-02-08T00:05:24.156Z,79.83
2023-02-08T00:06:24.175Z,79.62
2023-02-08T00:07:24.163Z,79.38
2023-02-08T00:08:24.164Z,79.16
2023-02-08T00:09:24.164Z,79.27
2023-02-08T00:10:24.144Z,78.85
2023-02-08T00:11:24.134Z,78.53
2023-02-08T00:12:24.160Z,78.64
2023-02-08T00:13:24.161Z,78.64
2023-02-08T00:14:24.117Z,78.22
2023-02-08T00:15:24.108Z,78.85
2023-02-08T00:16:24.183Z,79.16
2023-02-08T00:17:24.120Z,79.38
2023-02-08T00:18:24.110Z,79.16
2023-02-08T00:19:24.126Z,78.22
2023-02-08T00:20:24.093Z,78.74
2023-02-08T00:21:24.187Z,78.53
2023-02-08T00:22:24.092Z,78.57
2023-02-08T00:23:24.088Z,78.96
2023-02-08T00:24:24.132Z,78.64
2023-02-08T00:25:24.057Z,78.47
2023-02-08T00:26:24.077Z,78.43
2023-02-08T00:27:24.072Z,78.05
2023-02-08T00:28:24.108Z,78.53
2023-02-08T00:29:24.063Z,78.11
2023-02-08T00:30:24.050Z,78.64
2023-02-08T00:31:24.125Z,78.43
2023-02-08T00:32:24.034Z,78.53
2023-02-08T00:33:24.056Z,78.43
2023-02-08T00:34:24.024Z,78.53
2023-02-08T00:35:24.016Z,78.05
2023-02-08T00:36:24.058Z,78.85
2023-02-08T00:37:24.734Z,78.43
2023-02-08T00:38:23.992Z,78.47
2023-02-08T00:39:23.972Z,78.25
2023-02-08T00:40:24.058Z,78.47
2023-02-08T00:41:24.021Z,78.36
2023-02-08T00:42:24.100Z,78.89
2023-02-08T00:43:24.030Z,78.89
2023-02-08T00:44:23.957Z,78.25
2023-02-08T00:45:23.993Z,78.36
2023-02-08T00:46:24.152Z,78.47
2023-02-08T00:47:23.958Z,78.36
2023-02-08T00:48:23.971Z,78.78
2023-02-08T00:49:23.922Z,78.67
2023-02-08T00:50:23.950Z,78.22
2023-02-08T00:51:23.932Z,78.11
2023-02-08T00:52:23.938Z,77.45
2023-02-08T00:53:23.925Z,76.82
2023-02-08T00:54:23.918Z,77.14
2023-02-08T00:55:23.897Z,77.28
2023-02-08T00:56:23.914Z,77.21
2023-02-08T00:57:23.909Z,78.19
2023-02-08T00:58:23.879Z,78.50
2023-02-08T00:59:23.883Z,78.61
2023-02-08T01:00:23.890Z,78.92
2023-02-08T01:01:23.882Z,79.34
2023-02-08T01:02:23.877Z,79.24
2023-02-08T01:03:23.876Z,79.30
2023-02-08T01:04:23.866Z,78.89
2023-02-08T01:05:23.851Z,78.78
2023-02-08T01:06:23.872Z,78.67
2023-02-08T01:07:23.895Z,78.78
2023-02-08T01:08:23.835Z,78.57
2023-02-08T01:09:23.847Z,78.25
2023-02-08T01:10:23.848Z,78.81
2023-02-08T01:11:23.831Z,78.57
2023-02-08T01:12:23.849Z,78.61
2023-02-08T01:13:23.816Z,78.39
2023-02-08T01:14:23.829Z,79.13
2023-02-08T01:15:23.819Z,79.34
2023-02-08T01:16:23.885Z,78.92
2023-02-08T01:17:23.816Z,79.06
2023-02-08T01:18:23.792Z,78.96
2023-02-08T01:19:23.794Z,79.17
2023-02-08T01:20:23.821Z,80.00
2023-02-08T01:21:23.770Z,79.90
2023-02-08T01:22:23.831Z,80.00
2023-02-08T01:23:23.785Z,79.69
2023-02-08T01:24:23.777Z,79.27
2023-02-08T01:25:23.765Z,79.38
2023-02-08T01:26:23.760Z,79.38
2023-02-08T01:27:23.798Z,79.13
2023-02-08T01:28:23.790Z,78.39
2023-02-08T01:29:23.749Z,78.39
2023-02-08T01:30:23.822Z,78.43
2023-02-08T01:31:23.833Z,79.24
2023-02-08T01:32:23.759Z,79.06
2023-02-08T01:33:23.715Z,79.52
2023-02-08T01:34:23.748Z,79.80
2023-02-08T01:35:23.740Z,79.80
2023-02-08T01:36:23.749Z,79.90
2023-02-08T01:37:23.747Z,79.27
2023-02-08T01:38:23.702Z,79.38
2023-02-08T01:39:23.719Z,79.58
2023-02-08T01:40:23.695Z,79.80
2023-02-08T01:41:23.705Z,79.27
2023-02-08T01:42:23.654Z,79.17
2023-02-08T01:43:23.667Z,79.34
2023-02-08T01:44:23.697Z,78.81
2023-02-08T01:45:23.707Z,78.71
2023-02-08T01:46:23.654Z,77.98
2023-02-08T01:47:23.719Z,78.08
2023-02-08T01:48:24.278Z,78.08
2023-02-08T01:49:23.616Z,78.53
2023-02-08T01:50:23.702Z,78.43
2023-02-08T01:51:23.653Z,78.33
2023-02-08T01:52:23.631Z,78.29
2023-02-08T01:53:23.617Z,78.50
2023-02-08T01:54:23.641Z,78.33
2023-02-08T01:55:23.643Z,78.01
2023-02-08T01:56:23.659Z,78.22
2023-02-08T01:57:23.627Z,78.53
2023-02-08T01:58:23.629Z,78.96
2023-02-08T01:59:23.628Z,78.75
2023-02-08T02:00:23.573Z,78.75
2023-02-08T02:01:23.663Z,78.53
2023-02-08T02:02:23.629Z,79.17
2023-02-08T02:03:23.566Z,79.06
2023-02-08T02:04:23.636Z,78.75
2023-02-08T02:05:23.608Z,78.53
2023-02-08T02:06:23.566Z,78.53
2023-02-08T02:07:23.568Z,78.53
2023-02-08T02:08:23.559Z,78.43
2023-02-08T02:09:23.573Z,78.43
2023-02-08T02:10:23.533Z,78.85
2023-02-08T02:11:23.553Z,78.22
2023-02-08T02:12:23.544Z,78.22
2023-02-08T02:13:23.524Z,78.67
2023-02-08T02:14:24.497Z,78.64
2023-02-08T02:15:23.519Z,78.85
2023-02-08T02:16:23.516Z,79.38
2023-02-08T02:17:23.515Z,79.06
2023-02-08T02:18:23.498Z,78.75
2023-02-08T02:19:23.500Z,78.33
2023-02-08T02:20:23.489Z,78.75
2023-02-08T02:21:24.460Z,78.47
2023-02-08T02:22:23.493Z,78.89
2023-02-08T02:23:23.456Z,79.21
2023-02-08T02:24:23.498Z,79.73
2023-02-08T02:25:23.454Z,79.41
2023-02-08T02:26:23.468Z,79.62
2023-02-08T02:27:23.448Z,79.83
2023-02-08T02:28:23.480Z,79.41
2023-02-08T02:29:23.444Z,79.62
2023-02-08T02:30:23.427Z,79.38
2023-02-08T02:31:23.475Z,78.99
2023-02-08T02:32:23.413Z,78.33
2023-02-08T02:33:23.424Z,78.15
2023-02-08T02:34:23.424Z,78.64
2023-02-08T02:35:23.425Z,78.78
2023-02-08T02:36:23.376Z,78.12
2023-02-08T02:37:23.399Z,78.47
2023-02-08T02:38:23.418Z,78.36
2023-02-08T02:39:23.376Z,78.29
2023-02-08T02:40:23.380Z,78.82
2023-02-08T02:41:24.225Z,79.55
2023-02-08T02:42:23.421Z,79.55
2023-02-08T02:43:23.398Z,79.66
2023-02-08T02:44:23.395Z,79.66
2023-02-08T02:45:23.348Z,79.24
2023-02-08T02:46:23.355Z,80.01
2023-02-08T02:47:23.364Z,79.66
2023-02-08T02:48:23.350Z,79.66
2023-02-08T02:49:23.328Z,80.11
2023-02-08T02:50:23.330Z,80.01
2023-02-08T02:51:23.304Z,79.80
2023-02-08T02:52:23.310Z,79.91
2023-02-08T02:53:23.336Z,79.87
2023-02-08T02:54:24.303Z,79.87
2023-02-08T02:55:23.303Z,79.77
2023-02-08T02:56:23.313Z,79.97
2023-02-08T02:57:23.279Z,79.66
2023-02-08T02:58:23.307Z,79.49
2023-02-08T02:59:23.291Z,79.80
2023-02-08T03:00:23.311Z,80.11
2023-02-08T03:01:23.313Z,80.11
2023-02-08T03:02:23.274Z,80.11
2023-02-08T03:03:24.265Z,80.08
2023-02-08T03:04:23.281Z,79.24
2023-02-08T03:05:23.247Z,79.45
2023-02-08T03:06:23.268Z,79.24
2023-02-08T03:07:23.243Z,79.03
2023-02-08T03:08:23.239Z,79.35
2023-02-08T03:09:23.252Z,78.89
2023-02-08T03:10:23.192Z,78.82
2023-02-08T03:11:23.222Z,79.03
2023-02-08T03:12:23.215Z,78.78
2023-02-08T03:13:23.199Z,78.57
2023-02-08T03:14:24.253Z,78.64
2023-02-08T03:15:23.202Z,78.33
2023-02-08T03:16:23.241Z,77.70
2023-02-08T03:17:23.197Z,77.70
2023-02-08T03:18:23.179Z,77.80
2023-02-08T03:19:23.169Z,77.48
2023-02-08T03:20:23.145Z,78.26
2023-02-08T03:21:23.141Z,78.57
2023-02-08T03:22:23.154Z,78.19
2023-02-08T03:23:23.134Z,78.78
2023-02-08T03:24:23.146Z,78.82
2023-02-08T03:25:23.265Z,78.57
2023-02-08T03:26:23.706Z,78.57
2023-02-08T03:27:23.153Z,78.57
2023-02-08T03:28:23.283Z,78.15
2023-02-08T03:29:23.117Z,78.67
2023-02-08T03:30:23.143Z,78.57
2023-02-08T03:31:23.219Z,78.05
2023-02-08T03:32:23.122Z,78.26
2023-02-08T03:33:23.093Z,77.62
2023-02-08T03:34:23.109Z,77.62
2023-02-08T03:35:23.088Z,77.87
2023-02-08T03:36:23.101Z,78.05
2023-02-08T03:37:23.071Z,78.05
2023-02-08T03:38:23.050Z,77.98
2023-02-08T03:39:23.068Z,78.08
2023-02-08T03:40:23.048Z,78.19
2023-02-08T03:41:23.055Z,78.26
2023-02-08T03:42:23.039Z,78.82
2023-02-08T03:43:23.077Z,78.61
2023-02-08T03:44:23.082Z,78.19
2023-02-08T03:45:23.018Z,78.29
2023-02-08T03:46:23.066Z,78.40
2023-02-08T03:47:23.125Z,78.50
2023-02-08T03:48:23.040Z,78.29
2023-02-08T03:49:23.022Z,78.22
2023-02-08T03:50:23.004Z,78.22
2023-02-08T03:51:23.184Z,78.85
2023-02-08T03:52:23.105Z,78.85
2023-02-08T03:53:22.994Z,78.89
2023-02-08T03:54:22.972Z,79.63
2023-02-08T03:55:23.001Z,79.21
2023-02-08T03:56:22.969Z,79.00
2023-02-08T03:57:22.988Z,79.41
2023-02-08T03:58:22.971Z,79.52
2023-02-08T03:59:22.944Z,79.63
2023-02-08T04:00:22.982Z,79.49
2023-02-08T04:01:22.998Z,78.44
2023-02-08T04:02:23.043Z,78.54
2023-02-08T04:03:22.941Z,78.22
2023-02-08T04:04:22.929Z,78.44
2023-02-08T04:05:22.920Z,79.31
2023-02-08T04:06:22.891Z,79.17
2023-02-08T04:07:22.943Z,79.17
2023-02-08T04:08:22.903Z,79.17
2023-02-08T04:09:22.906Z,79.06
2023-02-08T04:10:22.897Z,79.38
2023-02-08T04:11:22.909Z,79.35
2023-02-08T04:12:23.691Z,78.75
2023-02-08T04:13:22.898Z,78.96
2023-02-08T04:14:23.708Z,78.92
2023-02-08T04:15:22.883Z,78.85
2023-02-08T04:16:22.881Z,79.27
2023-02-08T04:17:22.889Z,79.41
2023-02-08T04:18:22.885Z,79.49
2023-02-08T04:19:22.829Z,79.41
2023-02-08T04:20:22.856Z,79.31
2023-02-08T04:21:22.856Z,79.38
2023-02-08T04:22:22.873Z,79.31
2023-02-08T04:23:22.829Z,79.41
2023-02-08T04:24:22.821Z,79.94
2023-02-08T04:25:22.834Z,80.05
2023-02-08T04:26:22.849Z,79.73
2023-02-08T04:27:22.800Z,79.59
2023-02-08T04:28:22.817Z,78.64
2023-02-08T04:29:22.840Z,78.96
2023-02-08T04:30:22.791Z,78.50
2023-02-08T04:31:22.867Z,78.64
2023-02-08T04:32:22.813Z,78.61
2023-02-08T04:33:22.787Z,78.19
2023-02-08T04:34:22.795Z,78.44
2023-02-08T04:35:22.793Z,78.82
2023-02-08T04:36:22.772Z,78.05
2023-02-08T04:37:22.752Z,78.26
2023-02-08T04:38:22.765Z,77.66
2023-02-08T04:39:22.791Z,77.35
2023-02-08T04:40:22.747Z,77.56
2023-02-08T04:41:22.748Z,78.02
2023-02-08T04:42:22.761Z,78.68
2023-02-08T04:43:22.731Z,78.96
2023-02-08T04:44:22.715Z,78.47
2023-02-08T04:45:22.711Z,79.17
2023-02-08T04:46:22.826Z,79.45
2023-02-08T04:47:23.700Z,78.82
2023-02-08T04:48:22.684Z,78.54
2023-02-08T04:49:22.707Z,78.64
2023-02-08T04:50:23.211Z,78.12
2023-02-08T04:51:22.688Z,78.75
2023-02-08T04:52:22.711Z,78.44
2023-02-08T04:53:22.721Z,78.85
2023-02-08T04:54:22.689Z,78.19
2023-02-08T04:55:22.659Z,78.22
2023-02-08T04:56:22.632Z,78.44
2023-02-08T04:57:23.190Z,78.75
2023-02-08T04:58:22.637Z,78.64
2023-02-08T04:59:22.661Z,78.64
2023-02-08T05:00:22.615Z,78.96
2023-02-08T05:01:22.668Z,78.22
2023-02-08T05:02:22.618Z,78.44
2023-02-08T05:03:22.624Z,78.85
2023-02-08T05:04:22.611Z,78.58
2023-02-08T05:05:22.743Z,78.58
2023-02-08T05:06:23.220Z,78.47
2023-02-08T05:07:22.633Z,78.68
2023-02-08T05:08:22.607Z,78.68
2023-02-08T05:09:22.565Z,78.68
2023-02-08T05:10:22.600Z,78.68
2023-02-08T05:11:22.612Z,78.89
2023-02-08T05:12:22.560Z,79.00
2023-02-08T05:13:22.559Z,78.78
2023-02-08T05:14:22.533Z,78.58
2023-02-08T05:15:22.567Z,78.47
2023-02-08T05:16:22.564Z,78.85
2023-02-08T05:17:22.512Z,78.64
2023-02-08T05:18:22.515Z,78.22
2023-02-08T05:19:22.512Z,78.36
2023-02-08T05:20:22.570Z,78.36
2023-02-08T05:21:22.484Z,78.22
2023-02-08T05:22:22.478Z,78.36
2023-02-08T05:23:22.460Z,78.58
2023-02-08T05:24:22.452Z,78.58
2023-02-08T05:25:22.480Z,78.89
2023-02-08T05:26:22.451Z,78.68
2023-02-08T05:27:22.451Z,78.47
2023-02-08T05:28:22.513Z,78.68
2023-02-08T05:29:22.477Z,79.00
2023-02-08T05:30:22.437Z,78.68
2023-02-08T05:31:22.517Z,78.64
2023-02-08T05:32:22.416Z,78.44
2023-02-08T05:33:22.524Z,78.44
2023-02-08T05:34:22.405Z,78.02
2023-02-08T05:35:22.477Z,77.91
2023-02-08T05:36:22.446Z,77.80
2023-02-08T05:37:22.392Z,78.58
2023-02-08T05:38:22.378Z,78.26
2023-02-08T05:39:22.397Z,78.78
2023-02-08T05:40:22.374Z,78.85
2023-02-08T05:41:22.391Z,78.58
2023-02-08T05:42:22.351Z,78.44
2023-02-08T05:43:22.366Z,78.44
2023-02-08T05:44:22.368Z,78.44
2023-02-08T05:45:22.366Z,78.33
2023-02-08T05:46:22.378Z,78.12
2023-02-08T05:47:22.379Z,77.70
2023-02-08T05:48:22.333Z,78.02
2023-02-08T05:49:22.325Z,78.33
2023-02-08T05:50:22.301Z,78.89
2023-02-08T05:51:22.306Z,78.64
2023-02-08T05:52:22.339Z,79.17
2023-02-08T05:53:22.318Z,79.00
2023-02-08T05:54:22.327Z,79.21
2023-02-08T05:55:22.331Z,79.21
2023-02-08T05:56:22.283Z,79.00
2023-02-08T05:57:22.253Z,78.78
2023-02-08T05:58:22.297Z,79.31
2023-02-08T05:59:22.382Z,79.63
2023-02-08T06:00:22.239Z,79.24
2023-02-08T06:01:22.231Z,80.19
2023-02-08T06:02:22.235Z,79.60
2023-02-08T06:03:22.266Z,80.22
2023-02-08T06:04:22.283Z,80.26
2023-02-08T06:05:22.210Z,80.90
2023-02-08T06:06:22.199Z,81.32
2023-02-08T06:07:23.191Z,81.21
2023-02-08T06:08:23.205Z,81.32
2023-02-08T06:09:22.213Z,81.52
2023-02-08T06:10:23.341Z,81.42
2023-02-08T06:11:22.171Z,81.21
2023-02-08T06:12:22.186Z,81.49
2023-02-08T06:13:22.185Z,81.38
2023-02-08T06:14:22.152Z,81.28
2023-02-08T06:15:22.161Z,80.96
2023-02-08T06:16:22.179Z,80.75
2023-02-08T06:17:22.140Z,80.71
2023-02-08T06:18:22.152Z,80.51
2023-02-08T06:19:22.128Z,80.51
2023-02-08T06:20:22.113Z,79.98
2023-02-08T06:21:24.388Z,79.87
2023-02-08T06:22:22.104Z,79.98
2023-02-08T06:23:22.161Z,79.87
2023-02-08T06:24:22.099Z,79.66
2023-02-08T06:25:22.088Z,80.29
2023-02-08T06:26:22.083Z,79.87
2023-02-08T06:27:22.090Z,80.12
2023-02-08T06:28:22.114Z,80.40
2023-02-08T06:29:22.090Z,80.51
2023-02-08T06:30:22.067Z,80.15
2023-02-08T06:31:22.056Z,79.87
2023-02-08T06:32:22.110Z,79.98
2023-02-08T06:33:22.049Z,79.94
2023-02-08T06:34:22.041Z,79.98
2023-02-08T06:35:22.031Z,79.94
2023-02-08T06:36:22.083Z,79.45
2023-02-08T06:37:22.021Z,79.98
2023-02-08T06:38:22.000Z,80.08
2023-02-08T06:39:22.025Z,80.40
2023-02-08T06:40:21.984Z,80.08
2023-02-08T06:41:21.988Z,79.98
2023-02-08T06:42:21.981Z,80.05
2023-02-08T06:43:21.995Z,79.83
2023-02-08T06:44:21.976Z,79.83
2023-02-08T06:45:21.968Z,79.56
2023-02-08T06:46:21.975Z,79.56
2023-02-08T06:47:21.949Z,80.19
2023-02-08T06:48:21.941Z,79.98
2023-02-08T06:49:21.965Z,79.87
2023-02-08T06:50:24.071Z,79.80
2023-02-08T06:51:22.925Z,79.91
2023-02-08T06:52:21.926Z,79.91
2023-02-08T06:53:21.911Z,80.54
2023-02-08T06:54:21.924Z,80.40
2023-02-08T06:55:21.926Z,80.40
2023-02-08T06:56:21.945Z,80.29
2023-02-08T06:57:21.887Z,80.19
2023-02-08T06:58:21.906Z,79.77
2023-02-08T06:59:21.893Z,80.22
2023-02-08T07:00:21.919Z,80.08
2023-02-08T07:01:21.895Z,80.19
2023-02-08T07:02:21.915Z,79.91
2023-02-08T07:03:21.868Z,80.12
2023-02-08T07:04:21.864Z,80.12
2023-02-08T07:05:21.873Z,80.08
2023-02-08T07:06:21.847Z,80.19
2023-02-08T07:07:21.875Z,80.51
2023-02-08T07:08:21.824Z,80.08
2023-02-08T07:09:21.819Z,79.41
2023-02-08T07:10:21.824Z,79.59
2023-02-08T07:11:21.824Z,79.49
2023-02-08T07:12:21.809Z,78.75
2023-02-08T07:13:21.843Z,79.13
2023-02-08T07:14:21.793Z,78.19
2023-02-08T07:15:21.854Z,78.22
2023-02-08T07:16:21.861Z,78.33
2023-02-08T07:17:21.766Z,78.71
2023-02-08T07:18:21.757Z,78.29
2023-02-08T07:19:21.774Z,77.87
2023-02-08T07:20:21.758Z,77.87
2023-02-08T07:21:21.764Z,77.87
2023-02-08T07:22:21.761Z,78.36
2023-02-08T07:23:21.742Z,78.82
2023-02-08T07:24:21.743Z,79.66
2023-02-08T07:25:21.734Z,80.51
2023-02-08T07:26:21.739Z,80.61
2023-02-08T07:27:21.774Z,80.57
2023-02-08T07:28:21.853Z,80.36
2023-02-08T07:29:21.710Z,80.01
2023-02-08T07:30:21.725Z,79.56
2023-02-08T07:31:21.740Z,80.19
2023-02-08T07:32:21.719Z,80.61
2023-02-08T07:33:21.672Z,81.13
2023-02-08T07:34:21.693Z,81.24
2023-02-08T07:35:21.700Z,81.20
2023-02-08T07:36:21.711Z,81.24
2023-02-08T07:37:21.665Z,80.21
2023-02-08T07:38:21.671Z,76.09
2023-02-08T07:39:21.678Z,71.98
2023-02-08T07:40:21.642Z,68.68
2023-02-08T07:41:21.659Z,68.07
2023-02-08T07:42:21.681Z,65.01
2023-02-08T07:43:21.620Z,64.12
2023-02-08T07:44:21.644Z,63.02
2023-02-08T07:45:21.623Z,60.88
2023-02-08T07:46:21.665Z,59.89
2023-02-08T07:47:21.736Z,57.56
2023-02-08T07:48:21.594Z,56.55
2023-02-08T07:49:21.598Z,58.00
2023-02-08T07:50:21.586Z,57.53
2023-02-08T07:51:21.593Z,56.93
2023-02-08T07:52:21.600Z,55.05
2023-02-08T07:53:21.572Z,54.40
2023-02-08T07:54:21.579Z,52.80
2023-02-08T07:55:21.555Z,52.83
2023-02-08T07:56:21.554Z,52.69
2023-02-08T07:57:21.569Z,55.41
2023-02-08T07:58:21.553Z,58.00
2023-02-08T07:59:21.549Z,57.50
2023-02-08T08:00:21.531Z,55.02
2023-02-08T08:01:23.014Z,53.03
2023-02-08T08:02:22.524Z,53.06
2023-02-08T08:03:21.529Z,51.28
2023-02-08T08:04:21.626Z,50.80
2023-02-08T08:05:21.513Z,48.69
2023-02-08T08:06:21.510Z,48.03
2023-02-08T08:07:21.499Z,47.47
2023-02-08T08:08:21.545Z,46.71
2023-02-08T08:09:21.484Z,45.48
2023-02-08T08:10:21.468Z,45.64
2023-02-08T08:11:21.504Z,44.23
2023-02-08T08:12:21.465Z,42.24
2023-02-08T08:13:21.460Z,41.50
2023-02-08T08:14:21.460Z,41.30
2023-02-08T08:15:21.453Z,41.01
2023-02-08T08:16:21.532Z,41.52
2023-02-08T08:17:21.429Z,41.32
2023-02-08T08:18:21.430Z,41.32
2023-02-08T08:19:21.449Z,41.54
2023-02-08T08:20:21.420Z,41.54
2023-02-08T08:21:21.408Z,40.69
2023-02-08T08:22:21.399Z,40.70
2023-02-08T08:23:21.406Z,41.22
2023-02-08T08:24:21.421Z,41.40
2023-02-08T08:25:21.393Z,41.22
2023-02-08T08:26:21.399Z,41.50
2023-02-08T08:27:21.400Z,41.20
2023-02-08T08:28:21.467Z,40.16
2023-02-08T08:29:21.414Z,40.12
2023-02-08T08:30:22.260Z,40.36
2023-02-08T08:31:21.559Z,40.40
2023-02-08T08:32:21.343Z,41.25
2023-02-08T08:33:21.363Z,41.81
2023-02-08T08:34:21.352Z,40.75
2023-02-08T08:35:21.356Z,40.38
2023-02-08T08:36:21.344Z,40.89
2023-02-08T08:37:21.317Z,41.20
2023-02-08T08:38:21.329Z,40.73
2023-02-08T08:39:21.337Z,39.42
2023-02-08T08:40:21.342Z,41.56
2023-02-08T08:41:21.308Z,42.57
2023-02-08T08:42:21.291Z,41.85
2023-02-08T08:43:21.276Z,41.32
2023-02-08T08:44:21.299Z,41.11
2023-02-08T08:45:21.265Z,40.89
2023-02-08T08:46:21.358Z,40.42
2023-02-08T08:47:21.266Z,39.69
2023-02-08T08:48:21.274Z,39.64
2023-02-08T08:49:22.269Z,37.27
2023-02-08T08:50:21.281Z,38.35
2023-02-08T08:51:22.165Z,40.40
2023-02-08T08:52:21.236Z,41.85
2023-02-08T08:53:21.247Z,41.88
2023-02-08T08:54:21.227Z,40.16
2023-02-08T08:55:21.345Z,41.41
2023-02-08T08:56:21.268Z,44.80
2023-02-08T08:57:21.225Z,42.81
2023-02-08T08:58:21.206Z,42.61
2023-02-08T08:59:21.188Z,42.36
2023-02-08T09:00:21.460Z,41.18
2023-02-08T09:01:21.312Z,39.47
2023-02-08T09:02:21.167Z,38.53
2023-02-08T09:03:21.254Z,39.18
2023-02-08T09:04:21.152Z,39.10
2023-02-08T09:05:21.184Z,39.40
2023-02-08T09:06:21.149Z,39.33
2023-02-08T09:07:21.164Z,36.87
2023-02-08T09:08:21.181Z,36.99
2023-02-08T09:09:21.648Z,37.01
2023-02-08T09:10:21.131Z,38.59
2023-02-08T09:11:21.167Z,39.07
2023-02-08T09:12:21.153Z,41.46
2023-02-08T09:13:21.082Z,42.38
2023-02-08T09:14:21.104Z,43.16
2023-02-08T09:15:21.086Z,43.88
2023-02-08T09:16:21.129Z,43.91
2023-02-08T09:17:21.070Z,41.35
2023-02-08T09:18:21.064Z,39.54
2023-02-08T09:19:21.668Z,42.01
2023-02-08T09:20:21.059Z,44.17
2023-02-08T09:21:21.056Z,42.90
2023-02-08T09:22:21.058Z,41.54
2023-02-08T09:23:21.028Z,42.40
2023-02-08T09:24:21.012Z,42.97
2023-02-08T09:25:21.029Z,40.36
2023-02-08T09:26:21.028Z,39.95
2023-02-08T09:27:21.024Z,40.17
2023-02-08T09:28:21.102Z,40.79
2023-02-08T09:29:21.010Z,39.96
2023-02-08T09:30:21.020Z,37.75
2023-02-08T09:31:21.165Z,35.63
2023-02-08T09:32:21.001Z,34.99
2023-02-08T09:33:20.969Z,34.23
2023-02-08T09:34:20.976Z,32.87
2023-02-08T09:35:20.999Z,32.85
2023-02-08T09:36:20.978Z,31.94
2023-02-08T09:37:20.962Z,31.94
2023-02-08T09:38:20.969Z,31.19
2023-02-08T09:39:20.940Z,30.34
2023-02-08T09:40:20.946Z,30.05
2023-02-08T09:41:20.970Z,29.44
2023-02-08T09:42:20.940Z,30.62
2023-02-08T09:43:20.914Z,30.09
2023-02-08T09:44:20.916Z,30.94
2023-02-08T09:45:20.917Z,30.63
2023-02-08T09:46:20.955Z,30.91
2023-02-08T09:47:21.695Z,30.58
2023-02-08T09:48:21.012Z,29.55
2023-02-08T09:49:20.904Z,29.47
2023-02-08T09:50:20.871Z,29.80
2023-02-08T09:51:21.011Z,30.64
2023-02-08T09:52:20.913Z,30.77
2023-02-08T09:53:20.868Z,30.68
2023-02-08T09:54:20.834Z,33.03
2023-02-08T09:55:20.841Z,32.93
2023-02-08T09:56:20.837Z,31.38
2023-02-08T09:57:20.827Z,31.15
2023-02-08T09:58:20.900Z,30.25
2023-02-08T09:59:21.730Z,30.18
2023-02-08T10:00:20.827Z,31.41
2023-02-08T10:01:20.837Z,31.03
2023-02-08T10:02:20.844Z,32.71
2023-02-08T10:03:20.853Z,33.82
2023-02-08T10:04:20.799Z,33.94
2023-02-08T10:05:20.780Z,32.89
2023-02-08T10:06:20.788Z,32.59
2023-02-08T10:07:20.764Z,32.40
2023-02-08T10:08:20.768Z,32.28
2023-02-08T10:09:20.772Z,33.11
2023-02-08T10:10:20.738Z,32.05
2023-02-08T10:11:20.725Z,31.16
2023-02-08T10:12:20.732Z,32.89
2023-02-08T10:13:23.981Z,32.90
2023-02-08T10:14:21.763Z,32.89
2023-02-08T10:15:20.711Z,33.06
2023-02-08T10:16:20.724Z,31.68
2023-02-08T10:17:20.706Z,31.37
2023-02-08T10:18:20.724Z,30.13
2023-02-08T10:19:20.760Z,29.27
2023-02-08T10:20:20.715Z,28.72
2023-02-08T10:21:20.675Z,27.20
2023-02-08T10:22:20.662Z,27.98
2023-02-08T10:23:22.450Z,27.17
2023-02-08T10:24:21.664Z,27.14
2023-02-08T10:25:20.632Z,27.04
2023-02-08T10:26:20.627Z,27.34
2023-02-08T10:27:20.752Z,27.16
2023-02-08T10:28:20.654Z,27.48
2023-02-08T10:29:20.658Z,27.88
2023-02-08T10:30:20.719Z,26.90
2023-02-08T10:31:20.740Z,28.08
2023-02-08T10:32:20.596Z,29.64
2023-02-08T10:33:20.593Z,31.13
2023-02-08T10:34:20.595Z,32.80
2023-02-08T10:35:20.629Z,33.92
2023-02-08T10:36:20.574Z,33.82
2023-02-08T10:37:20.569Z,34.49
2023-02-08T10:38:20.563Z,34.77
2023-02-08T10:39:20.573Z,34.04
2023-02-08T10:40:20.596Z,33.99
2023-02-08T10:41:20.537Z,33.73
2023-02-08T10:42:20.539Z,34.22
2023-02-08T10:43:20.550Z,32.89
2023-02-08T10:44:20.572Z,34.21
2023-02-08T10:45:24.491Z,34.53
2023-02-08T10:46:21.533Z,34.11
2023-02-08T10:47:20.573Z,33.48
2023-02-08T10:48:20.509Z,33.47
2023-02-08T10:49:20.549Z,32.74
2023-02-08T10:50:20.530Z,32.64
2023-02-08T10:51:23.200Z,32.93
2023-02-08T10:52:20.488Z,33.04
2023-02-08T10:53:20.565Z,32.95
2023-02-08T10:54:20.523Z,33.22
2023-02-08T10:55:20.483Z,32.19
2023-02-08T10:56:20.479Z,31.83
2023-02-08T10:57:20.455Z,32.50
2023-02-08T10:58:20.455Z,33.06
2023-02-08T10:59:20.454Z,30.93
2023-02-08T11:00:21.282Z,33.26
2023-02-08T11:01:20.682Z,31.10
2023-02-08T11:02:20.430Z,32.06
2023-02-08T11:03:20.423Z,31.66
2023-02-08T11:04:20.485Z,33.26
2023-02-08T11:05:20.398Z,34.90
2023-02-08T11:06:21.435Z,33.62
2023-02-08T11:07:20.390Z,32.56
2023-02-08T11:08:20.468Z,32.05
2023-02-08T11:09:21.269Z,33.28
2023-02-08T11:10:21.054Z,32.40
2023-02-08T11:11:20.411Z,34.81
2023-02-08T11:12:20.436Z,35.93
2023-02-08T11:13:20.381Z,34.26
2023-02-08T11:14:20.439Z,34.00
2023-02-08T11:15:20.364Z,32.86
2023-02-08T11:16:20.442Z,32.00
2023-02-08T11:17:20.319Z,30.91
2023-02-08T11:18:21.267Z,29.55
2023-02-08T11:19:21.215Z,28.83
2023-02-08T11:20:20.344Z,29.89
2023-02-08T11:21:20.294Z,30.93
2023-02-08T11:22:20.311Z,30.04
2023-02-08T11:23:20.318Z,30.84
2023-02-08T11:24:20.308Z,31.30
2023-02-08T11:25:20.279Z,33.44
2023-02-08T11:26:20.301Z,35.49
2023-02-08T11:27:21.251Z,34.61
2023-02-08T11:28:20.336Z,36.82
2023-02-08T11:29:20.290Z,36.43
2023-02-08T11:30:20.353Z,34.52
2023-02-08T11:31:20.293Z,33.18
2023-02-08T11:32:20.234Z,31.30
2023-02-08T11:33:20.236Z,29.95
2023-02-08T11:34:20.245Z,29.88
2023-02-08T11:35:20.242Z,30.76
2023-02-08T11:36:20.270Z,31.40
2023-02-08T11:37:20.223Z,32.32
2023-02-08T11:38:20.208Z,32.19
2023-02-08T11:39:20.183Z,31.00
2023-02-08T11:40:20.172Z,30.38
2023-02-08T11:41:20.262Z,29.47
2023-02-08T11:42:20.171Z,30.22
2023-02-08T11:43:20.168Z,30.41
2023-02-08T11:44:20.152Z,29.27
2023-02-08T11:45:20.162Z,29.68
2023-02-08T11:46:20.165Z,29.79
2023-02-08T11:47:21.662Z,29.47
2023-02-08T11:48:21.116Z,29.08
2023-02-08T11:49:20.106Z,30.89
2023-02-08T11:50:20.135Z,30.16
2023-02-08T11:51:20.107Z,30.00
2023-02-08T11:52:20.170Z,29.66
2023-02-08T11:53:20.099Z,28.27
2023-02-08T11:54:20.086Z,26.72
2023-02-08T11:55:20.090Z,27.22
2023-02-08T11:56:20.085Z,28.01
2023-02-08T11:57:20.088Z,29.49
2023-02-08T11:58:20.070Z,32.95
2023-02-08T11:59:20.123Z,32.90
2023-02-08T12:00:20.071Z,32.25
2023-02-08T12:01:20.055Z,32.98
2023-02-08T12:02:20.101Z,29.69
2023-02-08T12:03:21.063Z,29.46
2023-02-08T12:04:20.047Z,29.49
2023-02-08T12:05:20.030Z,27.39
2023-02-08T12:06:20.024Z,25.20
2023-02-08T12:07:20.054Z,24.68
2023-02-08T12:08:19.999Z,25.14
2023-02-08T12:09:20.048Z,26.62
2023-02-08T12:10:20.048Z,27.17
2023-02-08T12:11:20.160Z,28.05
2023-02-08T12:12:19.979Z,27.72
2023-02-08T12:13:19.980Z,26.37
2023-02-08T12:14:20.031Z,25.53
2023-02-08T12:15:20.002Z,24.68
2023-02-08T12:16:20.061Z,23.76
2023-02-08T12:17:19.975Z,24.49
2023-02-08T12:18:19.949Z,24.13
2023-02-08T12:19:19.959Z,24.66
2023-02-08T12:20:19.977Z,24.21
2023-02-08T12:21:19.954Z,25.00
2023-02-08T12:22:19.942Z,23.92
2023-02-08T12:23:19.918Z,24.23
2023-02-08T12:24:19.950Z,23.23
2023-02-08T12:25:19.918Z,24.04
2023-02-08T12:26:19.903Z,24.52
2023-02-08T12:27:19.930Z,23.71
2023-02-08T12:28:20.010Z,24.28
2023-02-08T12:29:19.864Z,24.68
2023-02-08T12:30:19.918Z,25.67
2023-02-08T12:31:20.045Z,25.24
2023-02-08T12:32:19.855Z,23.50
2023-02-08T12:33:19.923Z,22.83
2023-02-08T12:34:19.845Z,23.15
2023-02-08T12:35:29.445Z,25.23
2023-02-08T12:36:21.828Z,23.16
2023-02-08T12:37:19.884Z,23.05
2023-02-08T12:38:19.852Z,21.90
2023-02-08T12:39:21.880Z,24.67
2023-02-08T12:40:20.812Z,24.57
2023-02-08T12:41:19.811Z,25.38
2023-02-08T12:42:19.831Z,24.68
2023-02-08T12:43:19.805Z,25.26
2023-02-08T12:44:19.791Z,23.93
2023-02-08T12:45:19.814Z,22.21
2023-02-08T12:46:19.885Z,21.93
2023-02-08T12:47:19.780Z,24.07
2023-02-08T12:48:19.777Z,24.04
2023-02-08T12:49:19.772Z,23.41
2023-02-08T12:50:19.990Z,22.95
2023-02-08T12:51:19.746Z,23.47
2023-02-08T12:52:19.760Z,23.47